CDT,Max TemperatureF,Mean TemperatureF,Min TemperatureF,Max Dew PointF,MeanDew PointF,Min DewpointF,Max Humidity, Mean Humidity, Min Humidity, Max Sea Level PressureIn, Mean Sea Level PressureIn, Min Sea Level PressureIn, Max VisibilityMiles, Mean VisibilityMiles, Min VisibilityMiles, Max Wind SpeedMPH, Mean Wind SpeedMPH, Max Gust SpeedMPH,PrecipitationIn, CloudCover, Events, WindDirDegrees
2013-6-1,78,68,57,65,61,56,100,78,56,29.70,29.63,29.59,10,8,1,24,8,33,0.31,4,Rain-Thunderstorm,209
2013-6-2,65,55,44,59,44,39,89,69,48,30.05,29.88,29.66,10,10,10,21,10,30,T,6,Rain,338
2013-6-3,73,57,41,49,44,39,100,68,35,30.12,30.05,29.99,10,10,10,16,7,23,0.00,1,Fog,294
2013-6-4,58,54,50,50,46,41,89,73,57,30.23,30.18,30.12,10,8,5,13,7,16,0.36,6,Rain,80
2013-6-5,59,54,49,51,48,44,89,78,67,30.19,30.12,30.03,10,9,5,17,7,22,0.18,8,Rain,71
2013-6-6,57,54,51,51,48,43,93,77,61,30.02,30.00,29.98,10,9,3,14,7,17,0.31,8,Rain,39
2013-6-7,72,63,53,52,47,38,86,58,29,30.03,29.98,29.94,10,10,10,15,5,19,0.00,5,,32
2013-6-8,71,61,51,55,50,46,93,71,49,30.04,29.99,29.93,10,10,9,16,4,20,0.00,4,,139
2013-6-9,74,63,51,60,53,43,89,73,57,30.05,29.98,29.89,10,9,6,20,9,24,0.00,3,,86
2013-6-10,78,67,56,64,59,53,86,71,56,29.87,29.83,29.80,10,7,5,10,5,14,0.00,4,,57
2013-6-11,82,70,57,63,60,55,93,72,51,29.90,29.85,29.81,10,7,1,15,6,18,0.00,1,,254
2013-6-12,75,67,58,62,58,52,97,72,46,29.91,29.84,29.75,10,7,2,20,6,23,0.04,3,Rain,37
2013-6-13,77,67,56,55,53,51,93,70,46,30.11,29.96,29.78,10,10,0,22,11,30,0.00,1,,17
2013-6-14,76,64,52,53,49,41,86,64,41,30.17,30.10,30.00,10,10,10,15,7,18,0.00,0,,59
2013-6-15,77,67,56,68,58,42,93,73,53,30.04,29.92,29.79,10,8,1,22,7,27,0.88,4,Rain-Thunderstorm,210
2013-6-16,83,71,59,63,59,53,93,65,37,29.91,29.84,29.81,10,9,5,23,10,31,0.00,3,,281
2013-6-17,73,64,55,62,57,51,93,81,68,30.03,29.93,29.88,10,10,10,21,10,24,0.02,2,,41
2013-6-18,70,59,47,52,47,42,86,66,45,30.13,30.10,30.03,10,10,10,18,8,25,0.00,1,,26
2013-6-19,77,61,45,52,47,43,93,64,35,30.17,30.12,30.07,10,10,10,14,5,18,0.00,0,,193
2013-6-20,86,70,53,60,53,46,77,57,37,30.14,30.11,30.06,10,10,10,20,8,24,0.00,1,,178
2013-6-21,79,73,66,66,62,53,93,75,57,30.09,29.99,29.85,10,8,2,37,9,43,0.50,4,Rain-Thunderstorm,204
2013-6-22,75,70,64,66,63,61,93,84,74,30.10,30.02,29.86,10,7,1,29,8,36,0.42,6,Rain-Thunderstorm,62
2013-6-23,86,75,63,73,66,62,100,81,61,29.99,29.91,29.82,10,7,2,22,10,27,0.03,1,Rain-Thunderstorm,172
2013-6-24,83,77,70,70,68,65,90,76,62,29.97,29.91,29.83,10,10,7,17,8,25,0.06,2,Rain,210
2013-6-25,82,75,68,69,67,64,90,76,62,29.89,29.84,29.80,10,10,9,14,6,21,0.01,4,Rain,221
2013-6-26,83,76,68,70,67,65,90,73,55,29.81,29.76,29.71,10,9,7,14,6,19,T,3,Rain,177
2013-6-27,87,76,65,70,65,63,93,69,45,29.80,29.72,29.66,10,9,2,10,7,28,0.21,4,Rain-Thunderstorm,262
2013-6-28,80,72,64,66,63,60,93,76,58,29.68,29.64,29.60,10,9,1,16,10,21,0.47,5,Rain,358
2013-6-29,74,67,60,61,58,49,93,74,55,29.87,29.73,29.65,10,9,2,22,12,29,0.02,7,Rain,15
2013-6-30,78,67,55,54,49,45,78,55,31,30.07,29.98,29.88,10,10,9,20,9,26,0.00,0,,24